Time;durP1;ratioP1;P1;durP2;ratioP2;P2;SDS_P1;SDS_P2;PMS_P1;PMS_P2;Temp;Humidity;BMP_temperature;BMP_pressure;BME280_temperature;BME280_humidity;BME280_pressure;Samples;Min_cycle;Max_cycle;Signal;HPM_P1;HPM_P2
2021/08/22 00:01:24;;;;;;;8.35;4.78;;;19.90;95.00;;;;;;4999933;28;20034;-87
2021/08/22 00:03:49;;;;;;;6.38;5.15;;;19.90;94.60;;;;;;5005421;28;20507;-89
2021/08/22 00:06:15;;;;;;;8.93;6.18;;;20.00;95.00;;;;;;5024698;28;20542;-88
2021/08/22 00:08:41;;;;;;;6.03;5.38;;;19.90;94.80;;;;;;4990931;28;20041;-87
2021/08/22 00:11:10;;;;;;;8.10;5.55;;;19.90;95.00;;;;;;5004487;28;20091;-87
2021/08/22 00:13:36;;;;;;;9.20;5.03;;;19.80;95.50;;;;;;5014181;28;20057;-87
2021/08/22 00:16:05;;;;;;;6.65;5.30;;;19.90;95.40;;;;;;4974681;28;20064;-87
2021/08/22 00:18:30;;;;;;;6.30;4.55;;;19.80;95.10;;;;;;5007234;28;20120;-87
2021/08/22 00:20:56;;;;;;;6.72;5.35;;;19.60;94.90;;;;;;4975020;28;20109;-87
2021/08/22 00:23:22;;;;;;;6.32;4.78;;;19.60;95.20;;;;;;4979905;28;20088;-86
2021/08/22 00:25:47;;;;;;;5.15;4.65;;;19.50;95.70;;;;;;5023679;28;20030;-87
2021/08/22 00:28:13;;;;;;;6.20;4.32;;;19.60;96.10;;;;;;4989180;28;20046;-88
2021/08/22 00:30:38;;;;;;;5.97;4.13;;;19.60;95.90;;;;;;4972682;28;20127;-88
2021/08/22 00:33:04;;;;;;;4.60;3.70;;;19.60;96.10;;;;;;5003844;28;20065;-88
2021/08/22 00:35:29;;;;;;;4.72;3.58;;;19.40;95.10;;;;;;4989472;28;20077;-87
2021/08/22 00:37:56;;;;;;;4.50;3.85;;;19.30;95.20;;;;;;5018836;28;20033;-88
2021/08/22 00:40:21;;;;;;;4.50;3.53;;;19.30;95.60;;;;;;4978055;28;20029;-88
2021/08/22 00:42:47;;;;;;;6.68;4.03;;;19.30;95.80;;;;;;4985250;28;20022;-89
2021/08/22 00:45:16;;;;;;;4.93;3.55;;;19.40;95.40;;;;;;4988167;28;20545;-88
2021/08/22 00:47:42;;;;;;;4.88;3.97;;;19.30;95.30;;;;;;4969983;28;20072;-87
2021/08/22 00:50:13;;;;;;;5.18;3.85;;;19.20;95.70;;;;;;4965960;28;20038;-87
2021/08/22 00:52:39;;;;;;;4.80;3.35;;;19.10;95.50;;;;;;4989277;28;20061;-88
2021/08/22 00:55:05;;;;;;;3.20;2.83;;;19.10;95.80;;;;;;4973008;28;20065;-87
2021/08/22 00:57:31;;;;;;;5.22;3.50;;;19.20;96.00;;;;;;5006140;28;20030;-87
2021/08/22 00:59:59;;;;;;;5.68;3.28;;;19.20;95.90;;;;;;4970706;28;20084;-87
2021/08/22 01:02:29;;;;;;;4.10;3.47;;;19.10;95.80;;;;;;4987551;28;20026;-88
2021/08/22 01:05:07;;;;;;;6.80;3.33;;;19.00;95.80;;;;;;4982343;28;20031;-88
2021/08/22 01:07:46;;;;;;;3.40;2.97;;;18.90;95.70;;;;;;5004153;28;20038;-87
2021/08/22 01:10:13;;;;;;;4.55;3.28;;;18.90;95.80;;;;;;4981328;28;20057;-87
2021/08/22 01:12:45;;;;;;;4.75;3.35;;;18.80;96.20;;;;;;4981868;28;20044;-87
2021/08/22 01:15:11;;;;;;;4.45;3.15;;;18.80;95.50;;;;;;4996028;28;20038;-86
2021/08/22 01:17:43;;;;;;;3.00;2.70;;;18.80;95.90;;;;;;5008347;28;20026;-88
2021/08/22 01:20:33;;;;;;;5.25;2.90;;;18.80;96.00;;;;;;5004791;28;20034;-87
2021/08/22 01:22:59;;;;;;;5.05;3.10;;;18.70;95.70;;;;;;4987306;28;20418;-87
2021/08/22 01:25:25;;;;;;;4.68;2.88;;;18.80;96.50;;;;;;4993760;28;20034;-85
2021/08/22 01:27:50;;;;;;;3.10;2.63;;;18.70;96.00;;;;;;4985703;28;20030;-86
2021/08/22 01:30:17;;;;;;;3.83;2.50;;;18.90;96.30;;;;;;4970334;28;20053;-84
2021/08/22 01:32:48;;;;;;;2.60;2.38;;;18.80;96.20;;;;;;5003740;28;20121;-83
2021/08/22 01:35:16;;;;;;;5.13;2.75;;;18.90;96.50;;;;;;4979692;28;20448;-86
2021/08/22 01:37:42;;;;;;;3.88;2.58;;;18.80;96.40;;;;;;5010772;28;20022;-86
2021/08/22 01:40:09;;;;;;;3.45;2.25;;;18.80;96.80;;;;;;5013036;28;20432;-85
2021/08/22 01:42:35;;;;;;;3.13;2.30;;;18.70;96.70;;;;;;5005901;28;20839;-85
2021/08/22 01:45:05;;;;;;;2.97;2.35;;;18.60;96.50;;;;;;4974567;28;20035;-86
2021/08/22 01:47:36;;;;;;;2.40;2.17;;;18.60;96.20;;;;;;5005099;28;20494;-85
2021/08/22 01:50:03;;;;;;;3.53;2.72;;;18.50;96.80;;;;;;4989856;28;20064;-85
2021/08/22 01:52:29;;;;;;;3.10;2.55;;;18.50;96.70;;;;;;5010230;28;20029;-85
2021/08/22 01:54:55;;;;;;;3.25;2.05;;;18.60;96.60;;;;;;5004207;28;20041;-85
2021/08/22 01:57:20;;;;;;;2.10;1.83;;;18.60;97.10;;;;;;4990694;28;20125;-85
2021/08/22 01:59:46;;;;;;;3.88;2.13;;;18.60;96.70;;;;;;4958262;28;20161;-85
2021/08/22 02:02:11;;;;;;;2.13;1.95;;;18.60;96.50;;;;;;4978508;28;20062;-85
2021/08/22 02:04:53;;;;;;;2.95;1.90;;;18.60;96.80;;;;;;5003507;28;20455;-85
2021/08/22 02:07:23;;;;;;;1.85;1.70;;;18.50;96.70;;;;;;4971800;28;20057;-84
2021/08/22 02:09:54;;;;;;;1.80;1.55;;;18.40;96.60;;;;;;4972334;28;20030;-84
2021/08/22 02:12:20;;;;;;;3.80;1.90;;;18.40;97.00;;;;;;4996095;28;20623;-83
2021/08/22 02:15:04;;;;;;;2.53;2.33;;;18.40;97.00;;;;;;4977959;28;20109;-84
2021/08/22 02:17:34;;;;;;;4.13;2.90;;;18.40;96.80;;;;;;4987838;28;20068;-84
2021/08/22 02:20:01;;;;;;;4.65;2.28;;;18.40;96.80;;;;;;4990914;28;20062;-84
2021/08/22 02:22:27;;;;;;;1.95;1.63;;;18.40;96.90;;;;;;4999480;28;20080;-84
2021/08/22 02:24:52;;;;;;;4.57;2.58;;;18.20;96.80;;;;;;4993340;28;20040;-84
2021/08/22 02:27:18;;;;;;;2.92;2.30;;;18.10;97.20;;;;;;4991163;28;20041;-84
2021/08/22 02:29:48;;;;;;;6.05;2.10;;;18.00;97.10;;;;;;4974724;28;20034;-84
2021/08/22 02:32:14;;;;;;;2.83;2.20;;;18.10;97.10;;;;;;5008094;28;20033;-84
2021/08/22 02:34:39;;;;;;;2.30;2.10;;;18.00;97.20;;;;;;4971356;28;20389;-84
2021/08/22 02:37:05;;;;;;;3.38;2.45;;;18.00;97.00;;;;;;4990562;28;20030;-83
2021/08/22 02:39:30;;;;;;;3.53;2.47;;;17.90;97.00;;;;;;4990506;28;20038;-84
2021/08/22 02:41:56;;;;;;;2.08;1.88;;;17.80;97.40;;;;;;5020907;28;20018;-83
2021/08/22 02:44:21;;;;;;;4.18;1.85;;;17.90;97.00;;;;;;5007787;28;20027;-84
2021/08/22 02:46:47;;;;;;;3.08;2.58;;;17.80;97.10;;;;;;4990716;28;20033;-84
2021/08/22 02:49:12;;;;;;;4.10;2.65;;;17.80;97.20;;;;;;4974957;28;20888;-84
2021/08/22 02:51:38;;;;;;;2.33;2.13;;;17.80;97.80;;;;;;4973853;28;20038;-84
2021/08/22 02:54:03;;;;;;;5.00;2.58;;;17.90;97.10;;;;;;4972905;28;20034;-85
2021/08/22 02:56:29;;;;;;;2.60;2.08;;;17.70;97.00;;;;;;4989700;28;20037;-84
2021/08/22 02:58:54;;;;;;;3.85;3.47;;;17.90;97.20;;;;;;4991453;28;20029;-84
2021/08/22 03:01:20;;;;;;;2.38;2.17;;;18.00;98.00;;;;;;4986397;28;20034;-83
2021/08/22 03:03:45;;;;;;;3.08;2.67;;;17.90;97.30;;;;;;4987661;28;20393;-82
2021/08/22 03:06:11;;;;;;;5.45;3.78;;;18.10;97.10;;;;;;5014300;28;20030;-84
2021/08/22 03:08:37;;;;;;;5.57;4.40;;;18.10;96.90;;;;;;4989761;28;20033;-85
2021/08/22 03:11:02;;;;;;;4.43;3.50;;;18.00;97.40;;;;;;4975647;28;20030;-84
2021/08/22 03:13:28;;;;;;;9.38;5.57;;;18.00;97.20;;;;;;4974913;28;20551;-84
2021/08/22 03:15:55;;;;;;;7.07;5.30;;;18.00;97.80;;;;;;5011581;28;20061;-84
2021/08/22 03:18:21;;;;;;;7.65;4.75;;;18.00;97.70;;;;;;4988276;28;20113;-84
2021/08/22 03:20:47;;;;;;;7.85;5.15;;;18.00;97.80;;;;;;4976626;28;20545;-84
2021/08/22 03:23:12;;;;;;;5.97;4.63;;;18.00;97.70;;;;;;4974103;28;20045;-84
2021/08/22 03:25:38;;;;;;;9.20;6.68;;;18.10;98.00;;;;;;5020498;28;20044;-84
2021/08/22 03:28:04;;;;;;;6.60;3.97;;;18.10;97.90;;;;;;4999194;28;20622;-84
2021/08/22 03:30:29;;;;;;;5.00;4.43;;;18.00;98.10;;;;;;4971927;28;20125;-84
2021/08/22 03:32:55;;;;;;;9.23;5.63;;;18.00;97.90;;;;;;4986570;28;20023;-84
2021/08/22 03:35:20;;;;;;;8.55;5.50;;;18.10;98.20;;;;;;4985809;28;20076;-84
2021/08/22 03:37:46;;;;;;;8.70;6.32;;;18.10;98.10;;;;;;4986561;28;20113;-85
2021/08/22 03:40:12;;;;;;;6.18;5.30;;;18.10;97.60;;;;;;5005749;28;20026;-84
2021/08/22 03:42:37;;;;;;;8.65;5.78;;;18.10;98.00;;;;;;4983474;28;20386;-84
2021/08/22 03:45:03;;;;;;;8.10;6.15;;;18.20;98.00;;;;;;5003254;28;20037;-84
2021/08/22 03:47:29;;;;;;;9.75;7.07;;;18.10;97.80;;;;;;4970130;28;20034;-84
2021/08/22 03:49:54;;;;;;;10.70;8.68;;;18.10;98.20;;;;;;5007245;28;20389;-85
2021/08/22 03:52:20;;;;;;;9.00;7.45;;;18.10;97.80;;;;;;4975442;28;20025;-84
2021/08/22 03:54:45;;;;;;;8.57;6.32;;;18.00;97.70;;;;;;5004338;28;20393;-84
2021/08/22 03:57:11;;;;;;;10.68;7.80;;;18.10;98.10;;;;;;4961290;28;20030;-84
2021/08/22 03:59:37;;;;;;;10.32;7.95;;;18.10;98.00;;;;;;4983034;28;20437;-84
2021/08/22 04:02:02;;;;;;;9.48;7.30;;;18.10;98.10;;;;;;4995378;28;20121;-84
2021/08/22 04:04:28;;;;;;;11.30;7.88;;;18.20;98.10;;;;;;4973888;28;20061;-84
2021/08/22 04:06:53;;;;;;;10.13;7.75;;;18.20;98.20;;;;;;4969048;28;20096;-84
2021/08/22 04:09:20;;;;;;;9.45;7.60;;;18.20;98.10;;;;;;4971443;28;20033;-85
2021/08/22 04:11:46;;;;;;;7.40;6.05;;;18.10;98.10;;;;;;5023099;28;20045;-84
2021/08/22 04:14:12;;;;;;;7.95;6.80;;;18.20;98.10;;;;;;5018209;28;20038;-82
2021/08/22 04:16:37;;;;;;;7.10;6.25;;;18.10;98.10;;;;;;4984119;28;20462;-84
2021/08/22 04:19:03;;;;;;;11.98;8.75;;;18.20;98.20;;;;;;4990436;28;20034;-84
2021/08/22 04:21:28;;;;;;;5.50;3.97;;;18.20;98.20;;;;;;4991662;28;20030;-84
2021/08/22 04:23:54;;;;;;;10.38;7.00;;;18.20;98.40;;;;;;4987420;28;20999;-84
2021/08/22 04:26:19;;;;;;;7.93;7.13;;;18.10;98.40;;;;;;4987939;28;20108;-83
2021/08/22 04:28:45;;;;;;;10.93;9.60;;;18.20;98.30;;;;;;4973447;28;20095;-83
2021/08/22 04:31:10;;;;;;;8.77;6.65;;;18.20;98.40;;;;;;4991505;28;20104;-84
2021/08/22 04:33:36;;;;;;;9.50;8.27;;;18.20;98.50;;;;;;5015657;28;20031;-84
2021/08/22 04:36:02;;;;;;;9.68;7.10;;;18.30;98.60;;;;;;4988395;28;20101;-84
2021/08/22 04:38:27;;;;;;;10.38;7.68;;;18.30;98.40;;;;;;4988424;28;20034;-84
2021/08/22 04:40:53;;;;;;;10.65;6.57;;;18.20;98.20;;;;;;5003381;28;20041;-84
2021/08/22 04:43:18;;;;;;;11.77;7.35;;;18.30;98.30;;;;;;4997584;28;20034;-84
2021/08/22 04:45:44;;;;;;;9.52;7.30;;;18.20;98.50;;;;;;5006140;28;20500;-85
2021/08/22 04:48:09;;;;;;;12.95;9.80;;;18.30;98.50;;;;;;5001808;28;20033;-85
2021/08/22 04:50:35;;;;;;;11.77;10.38;;;18.30;98.60;;;;;;4975010;28;20416;-85
2021/08/22 04:53:00;;;;;;;12.35;10.07;;;18.30;98.70;;;;;;5019304;28;20033;-85
2021/08/22 04:55:26;;;;;;;10.30;8.95;;;18.30;98.70;;;;;;4976590;28;20030;-85
2021/08/22 04:57:51;;;;;;;12.63;10.15;;;18.20;98.80;;;;;;5013469;28;20030;-85
2021/08/22 05:00:17;;;;;;;13.60;7.93;;;18.20;98.70;;;;;;4979233;28;20050;-85
2021/08/22 05:02:43;;;;;;;14.55;10.50;;;18.20;98.70;;;;;;4988736;28;20110;-85
2021/08/22 05:05:09;;;;;;;13.13;9.88;;;18.30;98.60;;;;;;4991244;28;20045;-85
2021/08/22 05:07:34;;;;;;;9.57;6.40;;;18.20;98.40;;;;;;4989208;28;20581;-86
2021/08/22 05:10:00;;;;;;;10.90;7.22;;;18.20;98.80;;;;;;4992563;28;20053;-85
2021/08/22 05:12:25;;;;;;;11.52;9.95;;;18.10;98.70;;;;;;4976318;28;20469;-85
2021/08/22 05:14:51;;;;;;;14.57;10.73;;;18.30;98.80;;;;;;4992130;28;20026;-85
2021/08/22 05:17:16;;;;;;;15.32;11.35;;;18.20;98.80;;;;;;4982636;28;20033;-85
2021/08/22 05:19:42;;;;;;;9.63;8.32;;;18.30;98.90;;;;;;4987502;28;20078;-84
2021/08/22 05:22:08;;;;;;;13.95;10.88;;;18.30;98.60;;;;;;4986111;28;20509;-85
2021/08/22 05:24:33;;;;;;;12.50;9.60;;;18.30;98.60;;;;;;4984531;28;20039;-85
2021/08/22 05:26:59;;;;;;;10.07;7.78;;;18.20;98.30;;;;;;4994684;28;21153;-84
2021/08/22 05:29:41;;;;;;;11.63;8.07;;;18.30;98.70;;;;;;4969430;28;20038;-85
2021/08/22 05:32:06;;;;;;;12.27;8.68;;;18.30;98.60;;;;;;4970867;28;20074;-85
2021/08/22 05:34:32;;;;;;;10.00;8.73;;;18.30;98.40;;;;;;5004975;28;20057;-85
2021/08/22 05:36:58;;;;;;;12.80;9.70;;;18.30;98.30;;;;;;5001381;28;20397;-85
2021/08/22 05:39:23;;;;;;;12.52;10.02;;;18.30;98.50;;;;;;4975538;28;20169;-86
2021/08/22 05:41:49;;;;;;;15.88;11.00;;;18.30;98.50;;;;;;4985964;28;20030;-86
2021/08/22 05:44:14;;;;;;;14.48;10.02;;;18.30;98.10;;;;;;4991214;28;20093;-85
2021/08/22 05:46:41;;;;;;;12.25;8.38;;;18.40;98.50;;;;;;5020711;28;20374;-85
2021/08/22 05:49:07;;;;;;;14.40;11.73;;;18.40;98.50;;;;;;4974259;28;20487;-85
2021/08/22 05:51:32;;;;;;;14.73;8.82;;;18.40;98.80;;;;;;5007956;28;20053;-85
2021/08/22 05:53:58;;;;;;;11.40;9.73;;;18.40;98.50;;;;;;4977750;28;20105;-85
2021/08/22 05:56:23;;;;;;;12.48;8.93;;;18.50;98.30;;;;;;4978018;28;20050;-85
2021/08/22 05:58:49;;;;;;;9.75;8.02;;;18.50;98.20;;;;;;4977333;28;20030;-86
2021/08/22 06:01:14;;;;;;;16.02;11.55;;;18.50;98.60;;;;;;5007487;28;20041;-84
2021/08/22 06:03:40;;;;;;;12.57;9.82;;;18.40;98.70;;;;;;5011152;28;20116;-85
2021/08/22 06:06:08;;;;;;;13.05;10.35;;;18.50;98.50;;;;;;4978112;28;20030;-85
2021/08/22 06:08:34;;;;;;;14.27;10.38;;;18.50;98.40;;;;;;5009161;28;20053;-85
2021/08/22 06:10:59;;;;;;;12.35;10.82;;;18.50;98.60;;;;;;5010351;28;20034;-84
2021/08/22 06:13:25;;;;;;;16.95;11.30;;;18.50;98.60;;;;;;4978365;28;20165;-85
2021/08/22 06:15:50;;;;;;;14.90;10.00;;;18.50;98.70;;;;;;4990624;28;20109;-84
2021/08/22 06:18:23;;;;;;;18.27;11.98;;;18.50;98.70;;;;;;4973940;28;20050;-83
2021/08/22 06:20:48;;;;;;;13.75;10.50;;;18.60;98.80;;;;;;4975578;28;20030;-83
2021/08/22 06:23:14;;;;;;;16.25;11.38;;;18.60;98.60;;;;;;4984516;28;20525;-84
2021/08/22 06:25:39;;;;;;;13.93;9.13;;;18.60;98.70;;;;;;4987539;28;20533;-84
2021/08/22 06:28:05;;;;;;;18.63;13.57;;;18.60;98.70;;;;;;4991238;28;20486;-84
2021/08/22 06:30:30;;;;;;;16.85;10.75;;;18.70;98.50;;;;;;5008099;28;20097;-85
2021/08/22 06:32:57;;;;;;;17.63;12.50;;;18.70;98.50;;;;;;4986847;28;20053;-82
2021/08/22 06:35:22;;;;;;;14.98;10.98;;;18.80;98.50;;;;;;5008906;28;20030;-86
2021/08/22 06:37:49;;;;;;;18.27;12.43;;;18.80;98.20;;;;;;4993198;28;20088;-87
2021/08/22 06:40:14;;;;;;;16.08;11.77;;;18.90;98.60;;;;;;4975483;28;20037;-84
2021/08/22 06:42:40;;;;;;;15.40;11.73;;;18.90;98.40;;;;;;4991571;28;20046;-84
2021/08/22 06:45:06;;;;;;;16.02;12.05;;;18.90;98.40;;;;;;4990956;28;20117;-84
2021/08/22 06:47:31;;;;;;;17.15;11.45;;;19.00;98.40;;;;;;4977295;28;20096;-84
2021/08/22 06:49:58;;;;;;;14.50;11.57;;;19.10;98.30;;;;;;4967851;28;20029;-84
2021/08/22 06:52:25;;;;;;;14.82;10.85;;;19.00;97.90;;;;;;4977218;28;20030;-83
2021/08/22 06:54:50;;;;;;;15.65;11.23;;;19.10;97.90;;;;;;4991329;28;20092;-85
2021/08/22 06:57:17;;;;;;;18.45;11.45;;;19.10;98.10;;;;;;4974384;28;20058;-85
2021/08/22 06:59:42;;;;;;;16.10;10.68;;;19.10;98.00;;;;;;4987046;28;20029;-83
2021/08/22 07:02:10;;;;;;;18.85;13.40;;;19.10;98.00;;;;;;5006354;28;20121;-84
2021/08/22 07:04:36;;;;;;;18.08;12.02;;;19.10;98.10;;;;;;5009479;28;20092;-85
2021/08/22 07:07:01;;;;;;;20.15;13.15;;;19.20;98.00;;;;;;5009363;28;20629;-85
2021/08/22 07:09:27;;;;;;;17.27;11.85;;;19.20;97.80;;;;;;4972620;28;20157;-84
2021/08/22 07:11:53;;;;;;;23.60;15.98;;;19.30;97.80;;;;;;5015840;28;20091;-86
2021/08/22 07:14:18;;;;;;;23.02;18.10;;;19.30;97.80;;;;;;5002742;28;20030;-86
2021/08/22 07:16:44;;;;;;;20.33;15.45;;;19.40;97.80;;;;;;4987108;28;20027;-86
2021/08/22 07:19:09;;;;;;;17.73;12.93;;;19.40;97.60;;;;;;5023043;28;20048;-86
2021/08/22 07:21:35;;;;;;;23.20;17.38;;;19.50;97.60;;;;;;4991708;28;20032;-86
2021/08/22 07:24:01;;;;;;;20.95;15.07;;;19.50;97.70;;;;;;4971253;28;20068;-84
2021/08/22 07:26:27;;;;;;;23.70;16.27;;;19.50;97.20;;;;;;4998145;28;20054;-86
2021/08/22 07:28:53;;;;;;;23.88;15.35;;;19.70;97.40;;;;;;4970450;28;20053;-86
2021/08/22 07:31:19;;;;;;;18.88;14.18;;;19.70;97.70;;;;;;5003653;28;20030;-85
2021/08/22 07:33:45;;;;;;;17.40;11.15;;;20.10;97.20;;;;;;5011958;28;20034;-84
2021/08/22 07:36:10;;;;;;;22.67;15.80;;;20.00;97.40;;;;;;4974648;28;20060;-85
2021/08/22 07:38:36;;;;;;;26.25;15.93;;;20.20;97.20;;;;;;4988609;28;20022;-84
2021/08/22 07:41:01;;;;;;;17.92;14.45;;;20.40;96.40;;;;;;4976263;28;20030;-84
2021/08/22 07:43:27;;;;;;;16.67;13.80;;;20.40;96.30;;;;;;5006353;28;20030;-85
2021/08/22 07:45:52;;;;;;;16.65;13.20;;;20.60;96.40;;;;;;4998741;28;20034;-85
2021/08/22 07:48:18;;;;;;;18.33;13.90;;;20.80;96.90;;;;;;4999766;28;20033;-85
2021/08/22 07:50:44;;;;;;;19.38;15.32;;;20.80;96.40;;;;;;5002587;28;20049;-85
2021/08/22 07:53:09;;;;;;;16.88;12.85;;;21.10;97.30;;;;;;4998924;28;20061;-84
2021/08/22 07:55:35;;;;;;;16.15;13.40;;;21.30;96.20;;;;;;5006153;28;20033;-85
2021/08/22 07:58:01;;;;;;;15.35;12.35;;;21.30;97.00;;;;;;4978637;28;20076;-85
2021/08/22 08:00:26;;;;;;;18.92;13.75;;;21.40;97.10;;;;;;5019760;28;20492;-85
2021/08/22 08:02:52;;;;;;;17.90;13.75;;;21.60;96.70;;;;;;5021109;28;20025;-85
2021/08/22 08:05:17;;;;;;;15.75;12.00;;;21.80;96.20;;;;;;4977582;28;20022;-85
2021/08/22 08:07:43;;;;;;;15.57;11.52;;;21.60;95.20;;;;;;4990413;28;20109;-85
2021/08/22 08:10:09;;;;;;;12.18;10.68;;;21.80;94.90;;;;;;5004334;28;20037;-85
2021/08/22 08:12:35;;;;;;;16.15;10.88;;;21.90;96.10;;;;;;5004896;28;20026;-84
2021/08/22 08:15:01;;;;;;;14.40;10.20;;;21.70;94.20;;;;;;4984460;28;20088;-86
2021/08/22 08:17:27;;;;;;;11.52;10.02;;;21.80;94.20;;;;;;4990659;28;20037;-85
2021/08/22 08:19:53;;;;;;;12.13;9.10;;;21.80;95.30;;;;;;4990290;28;20077;-86
2021/08/22 08:22:18;;;;;;;11.65;8.85;;;22.00;95.30;;;;;;4986711;28;20478;-85
2021/08/22 08:24:45;;;;;;;12.23;8.75;;;22.10;95.60;;;;;;4972054;28;20077;-86
2021/08/22 08:27:10;;;;;;;8.23;7.03;;;22.10;95.50;;;;;;5007771;28;20101;-85
2021/08/22 08:29:36;;;;;;;8.02;7.22;;;22.40;94.80;;;;;;4982649;28;20114;-86
2021/08/22 08:32:01;;;;;;;11.25;7.93;;;22.30;94.50;;;;;;4977711;28;20537;-88
2021/08/22 08:34:27;;;;;;;11.48;7.00;;;22.40;94.50;;;;;;5006295;28;20176;-87
2021/08/22 08:36:53;;;;;;;8.27;7.13;;;22.50;93.60;;;;;;4972744;28;20065;-87
2021/08/22 08:39:18;;;;;;;8.77;6.35;;;22.40;94.00;;;;;;4994463;28;20033;-87
2021/08/22 08:41:44;;;;;;;8.32;5.35;;;22.60;94.80;;;;;;4973589;28;20100;-87
2021/08/22 08:44:12;;;;;;;10.00;5.95;;;22.70;93.50;;;;;;4996227;28;20034;-86
2021/08/22 08:46:53;;;;;;;7.18;5.70;;;22.70;94.40;;;;;;4984571;28;20810;-87
2021/08/22 08:49:25;;;;;;;8.55;6.13;;;22.60;93.20;;;;;;5013495;28;20085;-87
2021/08/22 08:52:15;;;;;;;9.00;6.18;;;22.70;94.60;;;;;;4990250;28;20096;-87
2021/08/22 08:55:30;;;;;;;7.38;5.85;;;22.70;94.60;;;;;;5017782;28;20064;-87
2021/08/22 08:57:58;;;;;;;10.75;5.88;;;22.90;93.70;;;;;;4889904;29;20032;-89
2021/08/22 09:00:25;;;;;;;9.05;6.55;;;23.30;94.50;;;;;;4886970;29;20036;-88
2021/08/22 09:02:50;;;;;;;8.88;5.30;;;23.00;92.50;;;;;;4933348;28;20034;-87
2021/08/22 09:05:36;;;;;;;8.73;6.13;;;22.90;93.60;;;;;;4979965;28;20034;-87
2021/08/22 09:08:45;;;;;;;7.90;5.65;;;22.70;92.70;;;;;;5018754;28;20084;-88
2021/08/22 09:11:48;;;;;;;8.30;6.30;;;23.20;94.00;;;;;;5002785;28;20039;-88
2021/08/22 09:14:33;;;;;;;8.20;5.93;;;23.50;94.10;;;;;;5002308;28;20034;-87
2021/08/22 09:17:35;;;;;;;8.38;4.97;;;23.30;92.40;;;;;;4994654;28;20031;-88
2021/08/22 09:20:29;;;;;;;5.18;4.55;;;23.30;93.30;;;;;;5011755;28;20035;-88
2021/08/22 09:23:32;;;;;;;6.93;4.93;;;22.80;92.70;;;;;;5005628;28;20030;-88
2021/08/22 09:26:35;;;;;;;5.10;4.20;;;23.00;92.60;;;;;;4998739;28;20030;-88
2021/08/22 09:29:38;;;;;;;5.75;5.03;;;23.10;92.70;;;;;;5022872;28;20061;-87
2021/08/22 09:32:41;;;;;;;7.53;5.28;;;23.10;93.20;;;;;;5015918;28;20026;-87
2021/08/22 09:35:19;;;;;;;9.13;5.80;;;23.00;93.10;;;;;;5004897;28;20038;-89
2021/08/22 09:38:12;;;;;;;8.32;4.50;;;23.00;92.60;;;;;;5009833;28;20030;-87
2021/08/22 09:41:16;;;;;;;7.07;5.63;;;23.00;92.30;;;;;;5021079;28;20095;-89
2021/08/22 09:44:12;;;;;;;6.15;4.45;;;23.40;92.90;;;;;;4996162;28;20122;-88
2021/08/22 09:47:13;;;;;;;5.90;4.70;;;23.10;92.20;;;;;;5005406;28;20042;-89
2021/08/22 09:50:03;;;;;;;9.30;6.72;;;22.90;92.50;;;;;;4996635;28;20026;-87
2021/08/22 09:53:03;;;;;;;6.15;5.40;;;23.10;92.20;;;;;;5003533;28;20694;-89
2021/08/22 09:56:05;;;;;;;6.60;5.35;;;23.10;92.10;;;;;;5009402;28;20377;-88
2021/08/22 09:58:50;;;;;;;6.07;5.15;;;23.10;92.30;;;;;;5020537;28;20068;-85
2021/08/22 10:01:43;;;;;;;5.32;4.35;;;23.50;92.30;;;;;;5009970;28;20049;-86
2021/08/22 10:04:28;;;;;;;6.38;4.93;;;23.60;92.10;;;;;;5008386;28;20037;-88
2021/08/22 10:07:23;;;;;;;6.20;4.75;;;23.50;91.80;;;;;;5036371;28;20044;-85
2021/08/22 10:10:12;;;;;;;7.05;5.20;;;23.90;91.60;;;;;;5016943;28;20524;-86
2021/08/22 10:12:38;;;;;;;6.78;4.97;;;24.20;91.60;;;;;;5007071;28;20041;-86
2021/08/22 10:15:03;;;;;;;6.70;4.82;;;24.80;92.90;;;;;;4978274;28;20804;-87
2021/08/22 10:17:29;;;;;;;7.97;5.15;;;24.90;92.00;;;;;;4973960;28;20036;-87
2021/08/22 10:19:55;;;;;;;5.97;4.85;;;25.10;92.20;;;;;;5023371;28;21062;-87
2021/08/22 10:22:29;;;;;;;7.55;4.97;;;25.50;92.50;;;;;;4986672;28;20042;-86
2021/08/22 10:24:57;;;;;;;4.43;3.58;;;25.80;91.40;;;;;;5023005;28;20406;-88
2021/08/22 10:27:36;;;;;;;9.77;4.25;;;26.10;90.40;;;;;;4979340;28;20041;-87
2021/08/22 10:30:02;;;;;;;6.07;3.50;;;26.40;91.30;;;;;;5019689;28;20022;-89
2021/08/22 10:32:28;;;;;;;4.32;3.50;;;26.60;88.20;;;;;;5010023;28;20041;-87
2021/08/22 10:35:12;;;;;;;3.65;3.20;;;26.70;88.50;;;;;;5020716;28;20121;-87
2021/08/22 10:37:39;;;;;;;5.13;3.45;;;26.70;89.40;;;;;;4992016;28;20023;-88
2021/08/22 10:40:26;;;;;;;3.47;3.17;;;26.60;88.10;;;;;;4953627;28;20093;-87
2021/08/22 10:43:00;;;;;;;3.92;3.42;;;26.60;88.00;;;;;;4315942;28;10000853;-87
2021/08/22 10:45:43;;;;;;;3.67;3.35;;;26.40;89.30;;;;;;5002760;28;20412;-87
2021/08/22 10:48:30;;;;;;;6.55;2.85;;;26.50;89.70;;;;;;4992351;28;20520;-85
2021/08/22 10:51:07;;;;;;;4.53;3.50;;;26.50;85.90;;;;;;4959893;28;20029;-87
2021/08/22 10:53:36;;;;;;;4.97;3.05;;;26.60;85.90;;;;;;4981581;28;20409;-90
2021/08/22 10:56:25;;;;;;;2.55;2.35;;;26.90;87.10;;;;;;4991062;28;20537;-85
2021/08/22 10:58:58;;;;;;;3.42;2.60;;;27.00;83.10;;;;;;4991986;28;20038;-86
2021/08/22 11:01:24;;;;;;;4.45;3.30;;;27.10;82.80;;;;;;4996673;28;20038;-86
2021/08/22 11:04:12;;;;;;;1.60;1.48;;;27.20;82.70;;;;;;4972958;28;20265;-88
2021/08/22 11:07:03;;;;;;;7.10;3.13;;;27.40;79.10;;;;;;4981319;28;20046;-86
2021/08/22 11:09:42;;;;;;;3.25;2.88;;;27.30;80.90;;;;;;4997712;28;20037;-85
2021/08/22 11:12:34;;;;;;;3.70;2.55;;;27.40;81.00;;;;;;4975733;28;20039;-86
2021/08/22 11:15:01;;;;;;;5.30;2.63;;;27.50;79.80;;;;;;5002487;28;20088;-86
2021/08/22 11:17:27;;;;;;;3.28;2.35;;;27.80;80.10;;;;;;4992810;28;20083;-85
2021/08/22 11:19:52;;;;;;;3.72;2.33;;;27.80;77.60;;;;;;5036314;28;20033;-85
2021/08/22 11:22:26;;;;;;;6.07;2.80;;;28.10;76.40;;;;;;5032214;28;20029;-85
2021/08/22 11:24:51;;;;;;;2.75;2.10;;;28.10;75.30;;;;;;5022557;28;20029;-82
2021/08/22 11:27:27;;;;;;;3.03;2.22;;;28.10;74.40;;;;;;5052367;28;20203;-85
2021/08/22 11:30:00;;;;;;;;;;;28.00;75.40;;;;;;5021339;28;20031;-84
2021/08/22 11:32:26;;;;;;;4.45;3.50;;;28.10;73.10;;;;;;5027750;28;19913;-84
2021/08/22 11:34:52;;;;;;;2.03;1.67;;;28.10;71.40;;;;;;5002274;28;20059;-85
2021/08/22 11:37:19;;;;;;;7.85;2.33;;;28.00;71.00;;;;;;5013083;28;20555;-82
2021/08/22 11:39:44;;;;;;;3.67;2.60;;;28.10;71.60;;;;;;5022769;28;20460;-84
2021/08/22 11:42:10;;;;;;;3.40;2.30;;;27.90;71.50;;;;;;5033414;28;20096;-84
2021/08/22 11:44:36;;;;;;;6.28;2.60;;;27.70;71.90;;;;;;5044543;28;20506;-82
2021/08/22 11:47:01;;;;;;;3.83;2.00;;;27.70;71.80;;;;;;5029019;28;20037;-84
2021/08/22 11:49:27;;;;;;;4.03;2.33;;;27.80;71.20;;;;;;5011912;28;20031;-84
2021/08/22 11:51:54;;;;;;;4.63;2.47;;;27.80;72.40;;;;;;5039166;28;20029;-84
2021/08/22 11:54:20;;;;;;;6.53;2.63;;;28.10;71.70;;;;;;5026157;28;20033;-81
2021/08/22 11:56:46;;;;;;;5.40;2.58;;;28.20;71.20;;;;;;5029683;28;20092;-83
2021/08/22 11:59:27;;;;;;;4.03;2.83;;;28.40;70.30;;;;;;5007830;28;20041;-85
2021/08/22 12:02:19;;;;;;;5.97;2.78;;;28.70;69.80;;;;;;5024696;28;20096;-83
2021/08/22 12:04:45;;;;;;;2.80;1.98;;;29.00;72.50;;;;;;5034004;28;20022;-83
2021/08/22 12:07:10;;;;;;;3.75;2.22;;;29.10;68.30;;;;;;5046299;28;20574;-83
2021/08/22 12:09:36;;;;;;;5.22;3.08;;;29.10;69.90;;;;;;5043812;28;20373;-83
2021/08/22 12:12:02;;;;;;;4.70;3.15;;;29.30;67.70;;;;;;5037526;28;20022;-82
2021/08/22 12:14:31;;;;;;;4.00;2.40;;;29.10;69.70;;;;;;5028560;28;20032;-83
2021/08/22 12:16:57;;;;;;;5.63;2.78;;;29.10;68.50;;;;;;5039215;28;20037;-83
2021/08/22 12:19:29;;;;;;;4.45;2.42;;;28.90;66.60;;;;;;5026835;28;20029;-83
2021/08/22 12:21:55;;;;;;;4.70;2.33;;;28.80;67.60;;;;;;5017329;28;20033;-83
2021/08/22 12:24:22;;;;;;;6.63;2.75;;;28.80;65.60;;;;;;5026214;28;20032;-84
2021/08/22 12:26:58;;;;;;;4.93;2.60;;;28.80;67.30;;;;;;5006348;28;20033;-84
2021/08/22 12:29:27;;;;;;;;;;;28.80;65.10;;;;;;5023241;28;20048;-82
2021/08/22 12:31:55;;;;;;;3.70;2.78;;;29.00;66.00;;;;;;5027792;28;19909;-83
2021/08/22 12:34:21;;;;;;;3.30;2.33;;;29.00;67.80;;;;;;5034788;28;20116;-82
2021/08/22 12:36:46;;;;;;;2.42;1.67;;;29.10;68.40;;;;;;5005858;28;20572;-83
2021/08/22 12:39:15;;;;;;;3.75;2.40;;;29.20;66.00;;;;;;5029913;28;20112;-85
2021/08/22 12:41:51;;;;;;;6.03;2.75;;;29.30;66.70;;;;;;5049997;28;20029;-83
2021/08/22 12:44:24;;;;;;;4.38;2.25;;;29.20;66.40;;;;;;5027060;28;20065;-84
2021/08/22 12:46:54;;;;;;;3.60;2.42;;;29.10;66.00;;;;;;5038124;28;20045;-83
2021/08/22 12:49:19;;;;;;;3.90;2.13;;;29.20;64.90;;;;;;5025906;28;20100;-84
2021/08/22 12:51:49;;;;;;;8.00;1.70;;;28.90;65.80;;;;;;5055644;28;20123;-82
2021/08/22 12:54:14;;;;;;;3.08;2.17;;;28.70;65.50;;;;;;5023719;28;20048;-83